sensor_id;sensor_type;location;lat;lon;timestamp;P1;durP1;ratioP1;P2;durP2;ratioP2
21122;SDS011;10719;48.130;11.630;2023-12-07T00:01:45;14.70;;;6.27;;
21122;SDS011;10719;48.130;11.630;2023-12-07T00:04:10;17.77;;;8.00;;
21122;SDS011;10719;48.130;11.630;2023-12-07T00:06:36;16.37;;;7.30;;
21122;SDS011;10719;48.130;11.630;2023-12-07T00:09:02;16.03;;;7.60;;
21122;SDS011;10719;48.130;11.630;2023-12-07T00:11:27;18.47;;;7.60;;
21122;SDS011;10719;48.130;11.630;2023-12-07T00:13:53;16.57;;;7.63;;
21122;SDS011;10719;48.130;11.630;2023-12-07T00:16:18;19.60;;;7.83;;
21122;SDS011;10719;48.130;11.630;2023-12-07T00:18:44;18.13;;;7.70;;
21122;SDS011;10719;48.130;11.630;2023-12-07T00:21:09;15.97;;;6.90;;
21122;SDS011;10719;48.130;11.630;2023-12-07T00:23:35;18.40;;;8.07;;
21122;SDS011;10719;48.130;11.630;2023-12-07T00:26:04;17.47;;;7.80;;
21122;SDS011;10719;48.130;11.630;2023-12-07T00:28:30;17.17;;;7.67;;
21122;SDS011;10719;48.130;11.630;2023-12-07T00:30:56;16.40;;;7.43;;
21122;SDS011;10719;48.130;11.630;2023-12-07T00:33:21;17.60;;;8.07;;
21122;SDS011;10719;48.130;11.630;2023-12-07T00:35:47;17.10;;;8.13;;
21122;SDS011;10719;48.130;11.630;2023-12-07T00:38:13;15.70;;;7.53;;
21122;SDS011;10719;48.130;11.630;2023-12-07T00:40:39;17.67;;;7.63;;
21122;SDS011;10719;48.130;11.630;2023-12-07T00:43:05;17.27;;;7.63;;
21122;SDS011;10719;48.130;11.630;2023-12-07T00:45:31;16.90;;;7.03;;
21122;SDS011;10719;48.130;11.630;2023-12-07T00:47:56;17.90;;;8.37;;
21122;SDS011;10719;48.130;11.630;2023-12-07T00:50:22;16.03;;;7.60;;
21122;SDS011;10719;48.130;11.630;2023-12-07T00:52:48;16.97;;;7.80;;
21122;SDS011;10719;48.130;11.630;2023-12-07T00:55:13;17.33;;;7.37;;
21122;SDS011;10719;48.130;11.630;2023-12-07T00:57:39;17.53;;;7.90;;
21122;SDS011;10719;48.130;11.630;2023-12-07T01:00:05;18.33;;;7.77;;
21122;SDS011;10719;48.130;11.630;2023-12-07T01:02:31;16.20;;;7.50;;
21122;SDS011;10719;48.130;11.630;2023-12-07T01:04:57;18.10;;;7.97;;
21122;SDS011;10719;48.130;11.630;2023-12-07T01:07:22;18.00;;;7.77;;
21122;SDS011;10719;48.130;11.630;2023-12-07T01:09:48;16.77;;;7.57;;
21122;SDS011;10719;48.130;11.630;2023-12-07T01:12:14;17.53;;;8.17;;
21122;SDS011;10719;48.130;11.630;2023-12-07T01:14:40;17.50;;;7.53;;
21122;SDS011;10719;48.130;11.630;2023-12-07T01:17:06;17.13;;;7.97;;
21122;SDS011;10719;48.130;11.630;2023-12-07T01:19:31;20.67;;;8.20;;
21122;SDS011;10719;48.130;11.630;2023-12-07T01:21:57;19.03;;;8.07;;
21122;SDS011;10719;48.130;11.630;2023-12-07T01:24:22;20.80;;;8.20;;
21122;SDS011;10719;48.130;11.630;2023-12-07T01:26:48;18.43;;;8.47;;
21122;SDS011;10719;48.130;11.630;2023-12-07T01:29:14;15.47;;;7.17;;
21122;SDS011;10719;48.130;11.630;2023-12-07T01:31:40;19.73;;;8.40;;
21122;SDS011;10719;48.130;11.630;2023-12-07T01:34:05;19.50;;;8.90;;
21122;SDS011;10719;48.130;11.630;2023-12-07T01:36:31;17.87;;;8.70;;
21122;SDS011;10719;48.130;11.630;2023-12-07T01:38:56;19.03;;;8.97;;
21122;SDS011;10719;48.130;11.630;2023-12-07T01:41:23;19.47;;;8.93;;
21122;SDS011;10719;48.130;11.630;2023-12-07T01:43:48;17.87;;;8.13;;
21122;SDS011;10719;48.130;11.630;2023-12-07T01:46:14;19.03;;;9.03;;
21122;SDS011;10719;48.130;11.630;2023-12-07T01:48:41;20.20;;;8.50;;
21122;SDS011;10719;48.130;11.630;2023-12-07T01:51:08;19.97;;;8.77;;
21122;SDS011;10719;48.130;11.630;2023-12-07T01:53:36;21.13;;;9.67;;
21122;SDS011;10719;48.130;11.630;2023-12-07T01:56:04;21.03;;;9.63;;
21122;SDS011;10719;48.130;11.630;2023-12-07T01:58:29;19.10;;;8.50;;
21122;SDS011;10719;48.130;11.630;2023-12-07T02:00:56;19.17;;;8.67;;
21122;SDS011;10719;48.130;11.630;2023-12-07T02:03:21;19.17;;;8.80;;
21122;SDS011;10719;48.130;11.630;2023-12-07T02:05:48;22.73;;;8.87;;
21122;SDS011;10719;48.130;11.630;2023-12-07T02:08:15;18.87;;;8.57;;
21122;SDS011;10719;48.130;11.630;2023-12-07T02:10:41;18.70;;;7.90;;
21122;SDS011;10719;48.130;11.630;2023-12-07T02:13:07;22.37;;;9.47;;
21122;SDS011;10719;48.130;11.630;2023-12-07T02:15:33;19.53;;;7.73;;
21122;SDS011;10719;48.130;11.630;2023-12-07T02:20:39;21.10;;;9.10;;
21122;SDS011;10719;48.130;11.630;2023-12-07T02:23:10;24.88;;;12.45;;
21122;SDS011;10719;48.130;11.630;2023-12-07T02:28:16;19.37;;;9.27;;
21122;SDS011;10719;48.130;11.630;2023-12-07T02:30:42;23.20;;;9.83;;
21122;SDS011;10719;48.130;11.630;2023-12-07T02:33:08;19.93;;;9.47;;
21122;SDS011;10719;48.130;11.630;2023-12-07T02:35:35;18.40;;;8.43;;
21122;SDS011;10719;48.130;11.630;2023-12-07T02:38:01;19.50;;;8.13;;
21122;SDS011;10719;48.130;11.630;2023-12-07T02:40:28;18.53;;;8.70;;
21122;SDS011;10719;48.130;11.630;2023-12-07T02:42:55;19.23;;;9.13;;
21122;SDS011;10719;48.130;11.630;2023-12-07T02:45:22;18.00;;;7.97;;
21122;SDS011;10719;48.130;11.630;2023-12-07T02:47:48;17.73;;;8.40;;
21122;SDS011;10719;48.130;11.630;2023-12-07T02:50:14;18.50;;;8.47;;
21122;SDS011;10719;48.130;11.630;2023-12-07T02:52:39;18.73;;;8.60;;
21122;SDS011;10719;48.130;11.630;2023-12-07T02:55:05;17.33;;;7.67;;
21122;SDS011;10719;48.130;11.630;2023-12-07T02:57:32;18.57;;;8.00;;
21122;SDS011;10719;48.130;11.630;2023-12-07T03:00:01;20.00;;;9.00;;
21122;SDS011;10719;48.130;11.630;2023-12-07T03:02:32;19.87;;;8.57;;
21122;SDS011;10719;48.130;11.630;2023-12-07T03:05:02;17.07;;;7.40;;
21122;SDS011;10719;48.130;11.630;2023-12-07T03:07:28;18.93;;;8.63;;
21122;SDS011;10719;48.130;11.630;2023-12-07T03:09:54;15.90;;;6.90;;
21122;SDS011;10719;48.130;11.630;2023-12-07T03:12:20;18.77;;;8.13;;
21122;SDS011;10719;48.130;11.630;2023-12-07T03:14:45;16.90;;;8.23;;
21122;SDS011;10719;48.130;11.630;2023-12-07T03:17:11;20.17;;;8.23;;
21122;SDS011;10719;48.130;11.630;2023-12-07T03:19:39;18.97;;;8.30;;
21122;SDS011;10719;48.130;11.630;2023-12-07T03:22:05;18.90;;;7.97;;
21122;SDS011;10719;48.130;11.630;2023-12-07T03:24:32;20.80;;;8.80;;
21122;SDS011;10719;48.130;11.630;2023-12-07T03:26:58;19.50;;;8.10;;
21122;SDS011;10719;48.130;11.630;2023-12-07T03:29:23;21.50;;;8.93;;
21122;SDS011;10719;48.130;11.630;2023-12-07T03:31:49;19.70;;;8.47;;
21122;SDS011;10719;48.130;11.630;2023-12-07T03:34:14;17.50;;;8.30;;
21122;SDS011;10719;48.130;11.630;2023-12-07T03:36:41;15.93;;;7.33;;
21122;SDS011;10719;48.130;11.630;2023-12-07T03:39:10;18.53;;;7.40;;
21122;SDS011;10719;48.130;11.630;2023-12-07T03:41:36;17.07;;;7.80;;
21122;SDS011;10719;48.130;11.630;2023-12-07T03:44:01;19.30;;;7.83;;
21122;SDS011;10719;48.130;11.630;2023-12-07T03:46:27;18.00;;;7.63;;
21122;SDS011;10719;48.130;11.630;2023-12-07T03:48:53;17.20;;;7.83;;
21122;SDS011;10719;48.130;11.630;2023-12-07T03:51:18;17.47;;;7.53;;
21122;SDS011;10719;48.130;11.630;2023-12-07T03:53:44;16.63;;;7.40;;
21122;SDS011;10719;48.130;11.630;2023-12-07T03:56:09;19.13;;;6.90;;
21122;SDS011;10719;48.130;11.630;2023-12-07T03:58:35;17.33;;;6.97;;
21122;SDS011;10719;48.130;11.630;2023-12-07T04:01:01;18.13;;;7.47;;
21122;SDS011;10719;48.130;11.630;2023-12-07T04:03:26;15.90;;;6.77;;
21122;SDS011;10719;48.130;11.630;2023-12-07T04:05:52;16.70;;;6.60;;
21122;SDS011;10719;48.130;11.630;2023-12-07T04:08:17;14.80;;;6.67;;
21122;SDS011;10719;48.130;11.630;2023-12-07T04:10:43;18.40;;;6.23;;
21122;SDS011;10719;48.130;11.630;2023-12-07T04:13:09;19.20;;;6.77;;
21122;SDS011;10719;48.130;11.630;2023-12-07T04:15:34;18.60;;;6.70;;
21122;SDS011;10719;48.130;11.630;2023-12-07T04:18:00;14.50;;;6.57;;
21122;SDS011;10719;48.130;11.630;2023-12-07T04:20:25;13.23;;;5.53;;
21122;SDS011;10719;48.130;11.630;2023-12-07T04:22:51;15.33;;;6.37;;
21122;SDS011;10719;48.130;11.630;2023-12-07T04:25:17;14.70;;;5.83;;
21122;SDS011;10719;48.130;11.630;2023-12-07T04:27:43;19.07;;;6.13;;
21122;SDS011;10719;48.130;11.630;2023-12-07T04:30:09;16.00;;;6.40;;
21122;SDS011;10719;48.130;11.630;2023-12-07T04:32:35;17.10;;;6.77;;
21122;SDS011;10719;48.130;11.630;2023-12-07T04:35:00;15.53;;;6.80;;
21122;SDS011;10719;48.130;11.630;2023-12-07T04:37:26;16.27;;;6.97;;
21122;SDS011;10719;48.130;11.630;2023-12-07T04:39:51;15.57;;;6.60;;
21122;SDS011;10719;48.130;11.630;2023-12-07T04:42:17;17.80;;;7.13;;
21122;SDS011;10719;48.130;11.630;2023-12-07T04:44:43;18.53;;;7.07;;
21122;SDS011;10719;48.130;11.630;2023-12-07T04:47:08;15.50;;;6.73;;
21122;SDS011;10719;48.130;11.630;2023-12-07T04:49:34;17.63;;;6.67;;
21122;SDS011;10719;48.130;11.630;2023-12-07T04:51:59;16.97;;;7.00;;
21122;SDS011;10719;48.130;11.630;2023-12-07T04:54:25;17.53;;;6.73;;
21122;SDS011;10719;48.130;11.630;2023-12-07T04:56:52;16.77;;;7.07;;
21122;SDS011;10719;48.130;11.630;2023-12-07T04:59:18;16.13;;;6.53;;
21122;SDS011;10719;48.130;11.630;2023-12-07T05:01:43;14.97;;;6.13;;
21122;SDS011;10719;48.130;11.630;2023-12-07T05:04:09;13.63;;;5.97;;
21122;SDS011;10719;48.130;11.630;2023-12-07T05:06:34;14.07;;;5.80;;
21122;SDS011;10719;48.130;11.630;2023-12-07T05:09:00;15.80;;;6.60;;
21122;SDS011;10719;48.130;11.630;2023-12-07T05:11:26;13.80;;;6.47;;
21122;SDS011;10719;48.130;11.630;2023-12-07T05:13:52;18.63;;;7.50;;
21122;SDS011;10719;48.130;11.630;2023-12-07T05:16:17;21.10;;;6.67;;
21122;SDS011;10719;48.130;11.630;2023-12-07T05:18:43;14.60;;;5.83;;
21122;SDS011;10719;48.130;11.630;2023-12-07T05:21:09;14.40;;;6.03;;
21122;SDS011;10719;48.130;11.630;2023-12-07T05:23:35;19.07;;;7.10;;
21122;SDS011;10719;48.130;11.630;2023-12-07T05:26:00;18.60;;;6.93;;
21122;SDS011;10719;48.130;11.630;2023-12-07T05:28:26;15.57;;;6.37;;
21122;SDS011;10719;48.130;11.630;2023-12-07T05:30:52;15.17;;;5.90;;
21122;SDS011;10719;48.130;11.630;2023-12-07T05:33:21;13.70;;;6.13;;
21122;SDS011;10719;48.130;11.630;2023-12-07T05:35:46;14.27;;;6.10;;
21122;SDS011;10719;48.130;11.630;2023-12-07T05:38:12;17.00;;;6.40;;
21122;SDS011;10719;48.130;11.630;2023-12-07T05:40:37;14.83;;;5.73;;
21122;SDS011;10719;48.130;11.630;2023-12-07T05:43:03;14.83;;;6.20;;
21122;SDS011;10719;48.130;11.630;2023-12-07T05:45:29;16.03;;;6.63;;
21122;SDS011;10719;48.130;11.630;2023-12-07T05:47:55;15.10;;;5.57;;
21122;SDS011;10719;48.130;11.630;2023-12-07T05:50:21;16.30;;;6.87;;
21122;SDS011;10719;48.130;11.630;2023-12-07T05:52:48;15.40;;;6.30;;
21122;SDS011;10719;48.130;11.630;2023-12-07T05:55:13;14.20;;;5.93;;
21122;SDS011;10719;48.130;11.630;2023-12-07T05:57:39;15.03;;;6.33;;
21122;SDS011;10719;48.130;11.630;2023-12-07T06:00:06;16.13;;;6.33;;
21122;SDS011;10719;48.130;11.630;2023-12-07T06:02:35;16.63;;;6.07;;
21122;SDS011;10719;48.130;11.630;2023-12-07T06:05:02;17.60;;;6.60;;
21122;SDS011;10719;48.130;11.630;2023-12-07T06:07:29;15.07;;;6.30;;
21122;SDS011;10719;48.130;11.630;2023-12-07T06:09:54;14.00;;;5.20;;
21122;SDS011;10719;48.130;11.630;2023-12-07T06:12:20;16.63;;;6.47;;
21122;SDS011;10719;48.130;11.630;2023-12-07T06:14:47;15.07;;;6.13;;
21122;SDS011;10719;48.130;11.630;2023-12-07T06:17:15;17.63;;;6.33;;
21122;SDS011;10719;48.130;11.630;2023-12-07T06:19:41;15.70;;;6.17;;
21122;SDS011;10719;48.130;11.630;2023-12-07T06:22:07;15.90;;;5.87;;
21122;SDS011;10719;48.130;11.630;2023-12-07T06:24:33;17.87;;;6.90;;
21122;SDS011;10719;48.130;11.630;2023-12-07T06:26:59;16.60;;;6.07;;
21122;SDS011;10719;48.130;11.630;2023-12-07T06:29:26;15.30;;;6.57;;
21122;SDS011;10719;48.130;11.630;2023-12-07T06:31:52;18.17;;;6.67;;
21122;SDS011;10719;48.130;11.630;2023-12-07T06:34:18;15.17;;;5.97;;
21122;SDS011;10719;48.130;11.630;2023-12-07T06:36:44;23.67;;;7.37;;
21122;SDS011;10719;48.130;11.630;2023-12-07T06:39:10;17.07;;;7.10;;
21122;SDS011;10719;48.130;11.630;2023-12-07T06:41:35;14.60;;;6.30;;
21122;SDS011;10719;48.130;11.630;2023-12-07T06:44:01;18.20;;;6.53;;
21122;SDS011;10719;48.130;11.630;2023-12-07T06:46:27;16.10;;;6.63;;
21122;SDS011;10719;48.130;11.630;2023-12-07T06:48:52;16.60;;;6.53;;
21122;SDS011;10719;48.130;11.630;2023-12-07T06:51:18;14.67;;;6.10;;
21122;SDS011;10719;48.130;11.630;2023-12-07T06:53:43;18.07;;;7.30;;
21122;SDS011;10719;48.130;11.630;2023-12-07T06:56:09;17.27;;;6.97;;
21122;SDS011;10719;48.130;11.630;2023-12-07T06:58:34;17.73;;;7.27;;
21122;SDS011;10719;48.130;11.630;2023-12-07T07:01:00;20.47;;;6.90;;
21122;SDS011;10719;48.130;11.630;2023-12-07T07:03:26;14.43;;;5.73;;
21122;SDS011;10719;48.130;11.630;2023-12-07T07:05:52;16.10;;;6.67;;
21122;SDS011;10719;48.130;11.630;2023-12-07T07:08:19;15.90;;;6.63;;
21122;SDS011;10719;48.130;11.630;2023-12-07T07:10:45;15.50;;;6.13;;
21122;SDS011;10719;48.130;11.630;2023-12-07T07:13:12;17.67;;;6.43;;
21122;SDS011;10719;48.130;11.630;2023-12-07T07:15:41;16.70;;;6.90;;
21122;SDS011;10719;48.130;11.630;2023-12-07T07:18:08;18.43;;;8.03;;
21122;SDS011;10719;48.130;11.630;2023-12-07T07:20:34;14.70;;;6.50;;
21122;SDS011;10719;48.130;11.630;2023-12-07T07:22:59;15.03;;;6.40;;
21122;SDS011;10719;48.130;11.630;2023-12-07T07:25:25;14.87;;;6.37;;
21122;SDS011;10719;48.130;11.630;2023-12-07T07:27:51;16.13;;;7.13;;
21122;SDS011;10719;48.130;11.630;2023-12-07T07:30:17;14.50;;;6.37;;
21122;SDS011;10719;48.130;11.630;2023-12-07T07:32:43;14.23;;;5.87;;
21122;SDS011;10719;48.130;11.630;2023-12-07T07:35:09;19.20;;;5.90;;
21122;SDS011;10719;48.130;11.630;2023-12-07T07:37:36;16.83;;;6.73;;
21122;SDS011;10719;48.130;11.630;2023-12-07T07:40:03;13.53;;;6.00;;
21122;SDS011;10719;48.130;11.630;2023-12-07T07:42:32;17.73;;;7.03;;
21122;SDS011;10719;48.130;11.630;2023-12-07T07:44:57;14.00;;;6.27;;
21122;SDS011;10719;48.130;11.630;2023-12-07T07:47:23;15.17;;;6.93;;
21122;SDS011;10719;48.130;11.630;2023-12-07T07:49:49;16.63;;;6.63;;
21122;SDS011;10719;48.130;11.630;2023-12-07T07:52:14;16.17;;;6.50;;
21122;SDS011;10719;48.130;11.630;2023-12-07T07:54:40;14.53;;;6.27;;
21122;SDS011;10719;48.130;11.630;2023-12-07T07:57:06;20.23;;;7.30;;
21122;SDS011;10719;48.130;11.630;2023-12-07T07:59:31;18.13;;;7.23;;
21122;SDS011;10719;48.130;11.630;2023-12-07T08:01:57;18.07;;;7.90;;
21122;SDS011;10719;48.130;11.630;2023-12-07T08:04:22;17.13;;;7.67;;
21122;SDS011;10719;48.130;11.630;2023-12-07T08:06:48;15.73;;;6.73;;
21122;SDS011;10719;48.130;11.630;2023-12-07T08:09:13;17.00;;;7.00;;
21122;SDS011;10719;48.130;11.630;2023-12-07T08:11:39;17.63;;;7.20;;
21122;SDS011;10719;48.130;11.630;2023-12-07T08:14:05;16.00;;;6.87;;
21122;SDS011;10719;48.130;11.630;2023-12-07T08:16:30;19.37;;;6.90;;
21122;SDS011;10719;48.130;11.630;2023-12-07T08:18:56;17.80;;;7.40;;
21122;SDS011;10719;48.130;11.630;2023-12-07T08:21:23;16.43;;;7.37;;
21122;SDS011;10719;48.130;11.630;2023-12-07T08:23:50;17.53;;;6.37;;
21122;SDS011;10719;48.130;11.630;2023-12-07T08:26:16;17.83;;;6.97;;
21122;SDS011;10719;48.130;11.630;2023-12-07T08:28:42;18.43;;;7.80;;
21122;SDS011;10719;48.130;11.630;2023-12-07T08:31:07;18.07;;;7.23;;
21122;SDS011;10719;48.130;11.630;2023-12-07T08:33:33;16.63;;;6.70;;
21122;SDS011;10719;48.130;11.630;2023-12-07T08:35:59;16.53;;;6.77;;
21122;SDS011;10719;48.130;11.630;2023-12-07T08:38:26;15.77;;;6.53;;
21122;SDS011;10719;48.130;11.630;2023-12-07T08:40:51;17.67;;;6.87;;
21122;SDS011;10719;48.130;11.630;2023-12-07T08:43:20;17.63;;;7.23;;
21122;SDS011;10719;48.130;11.630;2023-12-07T08:45:48;17.17;;;7.67;;
21122;SDS011;10719;48.130;11.630;2023-12-07T08:48:14;18.77;;;7.17;;
21122;SDS011;10719;48.130;11.630;2023-12-07T08:50:39;19.53;;;6.73;;
21122;SDS011;10719;48.130;11.630;2023-12-07T08:53:05;18.60;;;7.23;;
21122;SDS011;10719;48.130;11.630;2023-12-07T08:55:31;16.10;;;5.87;;
21122;SDS011;10719;48.130;11.630;2023-12-07T08:57:57;13.23;;;5.87;;
21122;SDS011;10719;48.130;11.630;2023-12-07T09:00:24;15.97;;;6.97;;
21122;SDS011;10719;48.130;11.630;2023-12-07T09:02:50;17.53;;;7.03;;
21122;SDS011;10719;48.130;11.630;2023-12-07T09:05:17;17.60;;;6.37;;
21122;SDS011;10719;48.130;11.630;2023-12-07T09:07:42;16.03;;;6.53;;
21122;SDS011;10719;48.130;11.630;2023-12-07T09:10:08;14.60;;;6.40;;
21122;SDS011;10719;48.130;11.630;2023-12-07T09:12:34;15.60;;;6.40;;
21122;SDS011;10719;48.130;11.630;2023-12-07T09:15:01;15.77;;;6.10;;
21122;SDS011;10719;48.130;11.630;2023-12-07T09:17:30;14.10;;;5.23;;
21122;SDS011;10719;48.130;11.630;2023-12-07T09:19:56;16.67;;;6.60;;
21122;SDS011;10719;48.130;11.630;2023-12-07T09:22:21;15.50;;;6.27;;
21122;SDS011;10719;48.130;11.630;2023-12-07T09:24:47;15.03;;;5.70;;
21122;SDS011;10719;48.130;11.630;2023-12-07T09:27:13;13.23;;;5.33;;
21122;SDS011;10719;48.130;11.630;2023-12-07T09:29:39;12.93;;;5.00;;
21122;SDS011;10719;48.130;11.630;2023-12-07T09:32:05;13.10;;;5.43;;
21122;SDS011;10719;48.130;11.630;2023-12-07T09:34:32;10.93;;;4.50;;
21122;SDS011;10719;48.130;11.630;2023-12-07T09:37:07;12.75;;;5.22;;
21122;SDS011;10719;48.130;11.630;2023-12-07T09:39:33;12.77;;;4.60;;
21122;SDS011;10719;48.130;11.630;2023-12-07T09:41:59;10.17;;;3.90;;
21122;SDS011;10719;48.130;11.630;2023-12-07T09:44:25;12.17;;;4.60;;
21122;SDS011;10719;48.130;11.630;2023-12-07T09:46:51;9.77;;;3.90;;
21122;SDS011;10719;48.130;11.630;2023-12-07T09:49:17;10.17;;;3.83;;
21122;SDS011;10719;48.130;11.630;2023-12-07T09:51:43;11.60;;;3.70;;
21122;SDS011;10719;48.130;11.630;2023-12-07T09:54:10;8.87;;;3.03;;
21122;SDS011;10719;48.130;11.630;2023-12-07T09:56:36;7.80;;;3.30;;
21122;SDS011;10719;48.130;11.630;2023-12-07T09:59:02;9.93;;;3.33;;
21122;SDS011;10719;48.130;11.630;2023-12-07T10:01:28;7.95;;;2.75;;
21122;SDS011;10719;48.130;11.630;2023-12-07T10:04:14;5.83;;;2.70;;
21122;SDS011;10719;48.130;11.630;2023-12-07T10:06:44;7.17;;;3.03;;
21122;SDS011;10719;48.130;11.630;2023-12-07T10:09:13;8.05;;;2.80;;
21122;SDS011;10719;48.130;11.630;2023-12-07T10:11:39;7.47;;;2.40;;
21122;SDS011;10719;48.130;11.630;2023-12-07T10:14:06;8.25;;;2.60;;
21122;SDS011;10719;48.130;11.630;2023-12-07T10:16:35;7.17;;;2.53;;
21122;SDS011;10719;48.130;11.630;2023-12-07T10:19:16;5.60;;;2.43;;
21122;SDS011;10719;48.130;11.630;2023-12-07T10:21:50;5.20;;;2.47;;
21122;SDS011;10719;48.130;11.630;2023-12-07T10:24:20;3.87;;;1.57;;
21122;SDS011;10719;48.130;11.630;2023-12-07T10:26:48;5.75;;;2.50;;
21122;SDS011;10719;48.130;11.630;2023-12-07T10:29:16;6.90;;;2.70;;
21122;SDS011;10719;48.130;11.630;2023-12-07T10:31:44;6.70;;;2.63;;
21122;SDS011;10719;48.130;11.630;2023-12-07T10:34:11;4.03;;;1.95;;
21122;SDS011;10719;48.130;11.630;2023-12-07T10:36:37;4.90;;;2.10;;
21122;SDS011;10719;48.130;11.630;2023-12-07T10:39:03;6.05;;;2.45;;
21122;SDS011;10719;48.130;11.630;2023-12-07T10:41:31;6.88;;;2.70;;
21122;SDS011;10719;48.130;11.630;2023-12-07T10:44:00;5.90;;;2.17;;
21122;SDS011;10719;48.130;11.630;2023-12-07T10:46:27;8.45;;;3.17;;
21122;SDS011;10719;48.130;11.630;2023-12-07T10:49:00;8.00;;;2.83;;
21122;SDS011;10719;48.130;11.630;2023-12-07T10:51:30;7.65;;;2.50;;
21122;SDS011;10719;48.130;11.630;2023-12-07T10:54:00;8.03;;;2.50;;
21122;SDS011;10719;48.130;11.630;2023-12-07T10:56:32;4.10;;;2.13;;
21122;SDS011;10719;48.130;11.630;2023-12-07T10:59:05;7.75;;;2.30;;
21122;SDS011;10719;48.130;11.630;2023-12-07T11:01:31;7.22;;;2.45;;
21122;SDS011;10719;48.130;11.630;2023-12-07T11:03:58;6.45;;;2.33;;
21122;SDS011;10719;48.130;11.630;2023-12-07T11:06:25;5.47;;;2.20;;
21122;SDS011;10719;48.130;11.630;2023-12-07T11:08:54;5.07;;;2.00;;
21122;SDS011;10719;48.130;11.630;2023-12-07T11:14:02;4.43;;;1.98;;
21122;SDS011;10719;48.130;11.630;2023-12-07T11:16:40;5.93;;;2.13;;
21122;SDS011;10719;48.130;11.630;2023-12-07T11:21:57;4.55;;;1.63;;
21122;SDS011;10719;48.130;11.630;2023-12-07T11:24:23;6.07;;;1.80;;
21122;SDS011;10719;48.130;11.630;2023-12-07T11:26:51;3.80;;;1.80;;
21122;SDS011;10719;48.130;11.630;2023-12-07T11:29:19;3.78;;;1.75;;
21122;SDS011;10719;48.130;11.630;2023-12-07T11:31:45;6.72;;;1.90;;
21122;SDS011;10719;48.130;11.630;2023-12-07T11:34:11;4.43;;;1.83;;
21122;SDS011;10719;48.130;11.630;2023-12-07T11:36:40;3.90;;;1.80;;
21122;SDS011;10719;48.130;11.630;2023-12-07T11:41:45;4.78;;;1.65;;
21122;SDS011;10719;48.130;11.630;2023-12-07T11:44:17;7.28;;;2.00;;
21122;SDS011;10719;48.130;11.630;2023-12-07T11:46:42;6.30;;;2.20;;
21122;SDS011;10719;48.130;11.630;2023-12-07T11:49:08;6.68;;;2.20;;
21122;SDS011;10719;48.130;11.630;2023-12-07T11:51:36;7.35;;;2.88;;
21122;SDS011;10719;48.130;11.630;2023-12-07T11:54:02;8.27;;;3.10;;
21122;SDS011;10719;48.130;11.630;2023-12-07T11:56:27;6.85;;;2.60;;
21122;SDS011;10719;48.130;11.630;2023-12-07T11:58:53;6.90;;;2.60;;
21122;SDS011;10719;48.130;11.630;2023-12-07T12:01:21;7.50;;;2.40;;
21122;SDS011;10719;48.130;11.630;2023-12-07T12:03:49;5.00;;;2.38;;
21122;SDS011;10719;48.130;11.630;2023-12-07T12:06:14;8.15;;;2.65;;
21122;SDS011;10719;48.130;11.630;2023-12-07T12:08:40;7.32;;;2.35;;
21122;SDS011;10719;48.130;11.630;2023-12-07T12:11:09;5.65;;;1.77;;
21122;SDS011;10719;48.130;11.630;2023-12-07T12:13:35;4.30;;;1.90;;
21122;SDS011;10719;48.130;11.630;2023-12-07T12:16:01;3.97;;;1.70;;
21122;SDS011;10719;48.130;11.630;2023-12-07T12:18:28;5.53;;;1.85;;
21122;SDS011;10719;48.130;11.630;2023-12-07T12:20:54;4.03;;;1.50;;
21122;SDS011;10719;48.130;11.630;2023-12-07T12:23:20;4.80;;;2.17;;
21122;SDS011;10719;48.130;11.630;2023-12-07T12:25:46;4.20;;;1.83;;
21122;SDS011;10719;48.130;11.630;2023-12-07T12:28:15;5.88;;;1.67;;
21122;SDS011;10719;48.130;11.630;2023-12-07T12:30:42;5.05;;;1.80;;
21122;SDS011;10719;48.130;11.630;2023-12-07T12:33:08;3.75;;;1.75;;
21122;SDS011;10719;48.130;11.630;2023-12-07T12:35:34;5.20;;;1.73;;
21122;SDS011;10719;48.130;11.630;2023-12-07T12:38:00;4.53;;;1.90;;
21122;SDS011;10719;48.130;11.630;2023-12-07T12:40:27;4.43;;;1.60;;
21122;SDS011;10719;48.130;11.630;2023-12-07T12:42:56;4.53;;;1.88;;
21122;SDS011;10719;48.130;11.630;2023-12-07T12:45:22;6.20;;;2.03;;
21122;SDS011;10719;48.130;11.630;2023-12-07T12:47:49;4.38;;;1.88;;
21122;SDS011;10719;48.130;11.630;2023-12-07T12:50:34;5.28;;;2.10;;
21122;SDS011;10719;48.130;11.630;2023-12-07T12:53:12;8.10;;;2.58;;
21122;SDS011;10719;48.130;11.630;2023-12-07T12:55:39;5.38;;;2.25;;
21122;SDS011;10719;48.130;11.630;2023-12-07T12:58:06;6.43;;;2.20;;
21122;SDS011;10719;48.130;11.630;2023-12-07T13:00:33;6.03;;;2.33;;
21122;SDS011;10719;48.130;11.630;2023-12-07T13:03:03;7.97;;;2.40;;
21122;SDS011;10719;48.130;11.630;2023-12-07T13:05:29;8.00;;;2.35;;
21122;SDS011;10719;48.130;11.630;2023-12-07T13:07:55;4.05;;;1.90;;
21122;SDS011;10719;48.130;11.630;2023-12-07T13:10:21;5.88;;;2.08;;
21122;SDS011;10719;48.130;11.630;2023-12-07T13:12:46;4.22;;;1.73;;
21122;SDS011;10719;48.130;11.630;2023-12-07T13:15:12;4.07;;;1.83;;
21122;SDS011;10719;48.130;11.630;2023-12-07T13:17:38;5.30;;;2.20;;
21122;SDS011;10719;48.130;11.630;2023-12-07T13:20:05;4.93;;;1.65;;
21122;SDS011;10719;48.130;11.630;2023-12-07T13:22:38;5.30;;;1.80;;
21122;SDS011;10719;48.130;11.630;2023-12-07T13:25:05;4.13;;;1.88;;
21122;SDS011;10719;48.130;11.630;2023-12-07T13:27:32;4.28;;;1.80;;
21122;SDS011;10719;48.130;11.630;2023-12-07T13:29:58;6.10;;;2.08;;
21122;SDS011;10719;48.130;11.630;2023-12-07T13:32:24;4.95;;;2.25;;
21122;SDS011;10719;48.130;11.630;2023-12-07T13:34:50;6.13;;;2.05;;
21122;SDS011;10719;48.130;11.630;2023-12-07T13:37:15;4.50;;;2.13;;
21122;SDS011;10719;48.130;11.630;2023-12-07T13:39:41;5.13;;;2.22;;
21122;SDS011;10719;48.130;11.630;2023-12-07T13:42:08;5.43;;;2.50;;
21122;SDS011;10719;48.130;11.630;2023-12-07T13:44:34;7.72;;;2.75;;
21122;SDS011;10719;48.130;11.630;2023-12-07T13:47:00;7.80;;;2.17;;
21122;SDS011;10719;48.130;11.630;2023-12-07T13:49:26;5.80;;;1.98;;
21122;SDS011;10719;48.130;11.630;2023-12-07T13:51:51;4.93;;;2.08;;
21122;SDS011;10719;48.130;11.630;2023-12-07T13:54:17;3.83;;;1.83;;
21122;SDS011;10719;48.130;11.630;2023-12-07T13:56:42;4.72;;;1.85;;
21122;SDS011;10719;48.130;11.630;2023-12-07T13:59:08;4.32;;;1.98;;
21122;SDS011;10719;48.130;11.630;2023-12-07T14:01:36;7.35;;;2.30;;
21122;SDS011;10719;48.130;11.630;2023-12-07T14:04:01;7.15;;;2.50;;
21122;SDS011;10719;48.130;11.630;2023-12-07T14:06:27;5.22;;;2.03;;
21122;SDS011;10719;48.130;11.630;2023-12-07T14:08:53;7.40;;;2.65;;
21122;SDS011;10719;48.130;11.630;2023-12-07T14:11:19;8.13;;;2.83;;
21122;SDS011;10719;48.130;11.630;2023-12-07T14:13:45;7.63;;;3.03;;
21122;SDS011;10719;48.130;11.630;2023-12-07T14:16:14;16.60;;;3.15;;
21122;SDS011;10719;48.130;11.630;2023-12-07T14:18:40;9.10;;;3.70;;
21122;SDS011;10719;48.130;11.630;2023-12-07T14:21:05;6.53;;;2.70;;
21122;SDS011;10719;48.130;11.630;2023-12-07T14:23:31;10.63;;;3.50;;
21122;SDS011;10719;48.130;11.630;2023-12-07T14:25:57;9.07;;;3.47;;
21122;SDS011;10719;48.130;11.630;2023-12-07T14:28:23;8.23;;;3.23;;
21122;SDS011;10719;48.130;11.630;2023-12-07T14:30:49;8.83;;;3.47;;
21122;SDS011;10719;48.130;11.630;2023-12-07T14:33:21;8.23;;;3.27;;
21122;SDS011;10719;48.130;11.630;2023-12-07T14:35:46;9.50;;;3.80;;